createdAt,value
2023-04-19T00:01:12.335Z,7.30
2023-04-19T00:03:38.813Z,7.00
2023-04-19T00:06:07.640Z,7.70
2023-04-19T00:08:33.791Z,7.10
2023-04-19T00:10:59.918Z,6.57
2023-04-19T00:13:26.001Z,6.67
2023-04-19T00:15:52.082Z,6.10
2023-04-19T00:18:18.146Z,5.60
2023-04-19T00:20:44.250Z,5.70
2023-04-19T00:23:10.382Z,6.23
2023-04-19T00:25:36.538Z,5.70
2023-04-19T00:28:03.351Z,5.60
2023-04-19T00:30:29.474Z,5.10
2023-04-19T00:32:55.701Z,4.90
2023-04-19T00:35:21.874Z,4.60
2023-04-19T00:37:47.962Z,5.00
2023-04-19T00:40:14.198Z,4.80
2023-04-19T00:42:40.309Z,4.93
2023-04-19T00:45:06.996Z,4.30
2023-04-19T00:47:34.409Z,4.20
2023-04-19T00:50:00.674Z,4.70
2023-04-19T00:52:26.923Z,4.03
2023-04-19T00:54:53.214Z,4.73
2023-04-19T00:57:19.620Z,4.40
2023-04-19T00:59:45.780Z,3.80
2023-04-19T01:02:12.149Z,4.00
2023-04-19T01:04:38.500Z,4.27
2023-04-19T01:07:05.245Z,3.83
2023-04-19T01:09:31.354Z,4.17
2023-04-19T01:11:58.073Z,4.13
2023-04-19T01:14:25.004Z,4.07
2023-04-19T01:16:51.740Z,3.73
2023-04-19T01:19:18.064Z,3.47
2023-04-19T01:21:45.645Z,4.07
2023-04-19T01:24:11.753Z,4.20
2023-04-19T01:26:37.847Z,3.50
2023-04-19T01:29:03.935Z,3.30
2023-04-19T01:31:30.060Z,3.60
2023-04-19T01:33:56.314Z,3.60
2023-04-19T01:36:22.383Z,3.50
2023-04-19T01:38:49.165Z,3.73
2023-04-19T01:41:15.332Z,3.63
2023-04-19T01:43:41.403Z,3.53
2023-04-19T01:46:07.495Z,3.30
2023-04-19T01:48:33.584Z,3.70
2023-04-19T01:50:59.845Z,3.47
2023-04-19T01:53:25.911Z,3.87
2023-04-19T01:55:52.041Z,3.13
2023-04-19T01:58:18.122Z,3.00
2023-04-19T02:00:44.213Z,3.50
2023-04-19T02:03:10.440Z,3.60
2023-04-19T02:05:38.721Z,3.70
2023-04-19T02:08:05.059Z,3.03
2023-04-19T02:10:31.180Z,3.43
2023-04-19T02:12:57.309Z,2.90
2023-04-19T02:15:23.360Z,3.47
2023-04-19T02:17:49.920Z,3.00
2023-04-19T02:20:16.125Z,3.30
2023-04-19T02:22:43.165Z,3.47
2023-04-19T02:25:09.752Z,3.10
2023-04-19T02:27:35.859Z,3.10
2023-04-19T02:30:02.125Z,3.40
2023-04-19T02:32:28.251Z,3.90
2023-04-19T02:34:54.422Z,3.27
2023-04-19T02:37:20.532Z,3.80
2023-04-19T02:39:46.632Z,3.50
2023-04-19T02:42:12.705Z,3.83
2023-04-19T02:44:38.872Z,3.53
2023-04-19T02:47:05.196Z,3.50
2023-04-19T02:49:36.272Z,3.30
2023-04-19T02:52:02.438Z,3.40
2023-04-19T02:54:28.510Z,3.27
2023-04-19T02:56:54.597Z,3.50
2023-04-19T02:59:20.703Z,3.90
2023-04-19T03:01:46.926Z,4.00
2023-04-19T03:04:13.276Z,4.07
2023-04-19T03:06:41.225Z,4.20
2023-04-19T03:09:07.358Z,4.33
2023-04-19T03:11:33.548Z,4.03
2023-04-19T03:14:00.031Z,3.80
2023-04-19T03:16:26.434Z,3.50
2023-04-19T03:18:52.572Z,3.70
2023-04-19T03:21:18.679Z,3.63
2023-04-19T03:23:45.102Z,4.00
2023-04-19T03:26:11.187Z,5.10
2023-04-19T03:28:37.418Z,4.27
2023-04-19T03:31:03.634Z,4.67
2023-04-19T03:33:29.821Z,4.60
2023-04-19T03:35:56.657Z,4.60
2023-04-19T03:38:22.860Z,4.60
2023-04-19T03:40:49.364Z,4.43
2023-04-19T03:43:15.504Z,4.70
2023-04-19T03:45:41.579Z,5.10
2023-04-19T03:48:07.669Z,4.87
2023-04-19T03:50:33.812Z,5.63
2023-04-19T03:52:59.899Z,5.00
2023-04-19T03:55:26.014Z,5.43
2023-04-19T03:57:52.139Z,5.10
2023-04-19T04:00:18.275Z,5.00
2023-04-19T04:02:44.571Z,4.70
2023-04-19T04:05:11.077Z,5.30
2023-04-19T04:07:37.317Z,4.80
2023-04-19T04:10:03.873Z,4.20
2023-04-19T04:12:30.081Z,5.17
2023-04-19T04:14:56.156Z,5.30
2023-04-19T04:17:23.600Z,5.47
2023-04-19T04:19:49.827Z,4.63
2023-04-19T04:22:16.327Z,5.30
2023-04-19T04:24:43.344Z,4.80
2023-04-19T04:27:10.219Z,4.47
2023-04-19T04:29:36.762Z,4.77
2023-04-19T04:32:09.809Z,4.43
2023-04-19T04:34:36.612Z,4.20
2023-04-19T04:37:03.454Z,4.27
2023-04-19T04:39:29.822Z,4.73
2023-04-19T04:41:57.116Z,4.53
2023-04-19T04:44:23.698Z,4.60
2023-04-19T04:46:49.945Z,4.13
2023-04-19T04:49:16.094Z,4.87
2023-04-19T04:51:42.259Z,4.67
2023-04-19T04:54:08.333Z,4.40
2023-04-19T04:56:35.152Z,4.07
2023-04-19T04:59:01.272Z,5.00
2023-04-19T05:01:27.539Z,4.27
2023-04-19T05:03:53.708Z,3.80
2023-04-19T05:06:19.822Z,4.07
2023-04-19T05:08:45.940Z,4.87
2023-04-19T05:11:12.070Z,4.30
2023-04-19T05:13:38.139Z,4.57
2023-04-19T05:16:04.603Z,4.97
2023-04-19T05:18:30.810Z,4.70
2023-04-19T05:20:57.444Z,4.60
2023-04-19T05:23:23.574Z,4.10
2023-04-19T05:25:49.820Z,4.20
2023-04-19T05:28:15.924Z,4.20
2023-04-19T05:30:42.030Z,3.90
2023-04-19T05:33:08.250Z,4.07
2023-04-19T05:35:34.393Z,4.50
2023-04-19T05:38:00.676Z,3.70
2023-04-19T05:40:27.681Z,4.57
2023-04-19T05:42:53.798Z,3.70
2023-04-19T05:45:21.307Z,3.77
2023-04-19T05:47:47.388Z,3.77
2023-04-19T05:50:17.198Z,4.03
2023-04-19T05:52:43.410Z,3.43
2023-04-19T05:55:09.499Z,4.07
2023-04-19T05:57:35.652Z,3.40
2023-04-19T06:00:02.493Z,3.70
2023-04-19T06:02:29.024Z,3.00
2023-04-19T06:04:57.392Z,4.33
2023-04-19T06:07:32.005Z,4.00
2023-04-19T06:10:00.838Z,3.40
2023-04-19T06:12:27.085Z,3.23
2023-04-19T06:14:53.609Z,3.03
2023-04-19T06:17:24.508Z,3.37
2023-04-19T06:19:51.383Z,3.37
2023-04-19T06:22:17.530Z,3.00
2023-04-19T06:24:45.172Z,3.17
2023-04-19T06:27:11.672Z,2.97
2023-04-19T06:29:37.732Z,3.30
2023-04-19T06:32:04.212Z,3.40
2023-04-19T06:34:30.523Z,3.20
2023-04-19T06:36:56.717Z,3.37
2023-04-19T06:39:22.845Z,3.00
2023-04-19T06:41:48.994Z,2.80
2023-04-19T06:44:15.557Z,2.63
2023-04-19T06:46:41.897Z,3.17
2023-04-19T06:49:07.999Z,2.90
2023-04-19T06:51:34.287Z,2.60
2023-04-19T06:54:00.383Z,3.50
2023-04-19T06:56:46.357Z,2.80
2023-04-19T06:59:13.815Z,2.93
2023-04-19T07:01:40.632Z,2.40
2023-04-19T07:04:07.718Z,2.43
2023-04-19T07:06:38.024Z,2.67
2023-04-19T07:09:05.492Z,2.47
2023-04-19T07:11:32.003Z,2.27
2023-04-19T07:14:00.142Z,2.50
2023-04-19T07:16:27.176Z,2.47
2023-04-19T07:18:53.405Z,2.40
2023-04-19T07:21:19.534Z,2.77
2023-04-19T07:23:45.723Z,2.67
2023-04-19T07:26:11.852Z,2.93
2023-04-19T07:28:39.113Z,2.50
2023-04-19T07:31:05.288Z,2.20
2023-04-19T07:33:31.595Z,2.10
2023-04-19T07:35:57.717Z,2.87
2023-04-19T07:38:24.213Z,2.40
2023-04-19T07:40:50.828Z,2.30
2023-04-19T07:43:17.016Z,2.30
2023-04-19T07:45:43.158Z,2.60
2023-04-19T07:48:09.576Z,2.77
2023-04-19T07:50:36.598Z,2.23
2023-04-19T07:53:02.767Z,2.20
2023-04-19T07:55:28.939Z,2.20
2023-04-19T07:57:55.159Z,2.43
2023-04-19T08:00:21.412Z,2.40
2023-04-19T08:02:48.456Z,2.27
2023-04-19T08:05:18.604Z,2.53
2023-04-19T08:07:45.385Z,2.40
2023-04-19T08:10:11.916Z,2.00
2023-04-19T08:12:42.982Z,2.63
2023-04-19T08:17:46.424Z,2.33
2023-04-19T08:20:12.584Z,2.17
2023-04-19T08:22:39.096Z,2.40
2023-04-19T08:25:06.610Z,4.27
2023-04-19T08:27:32.798Z,2.70
2023-04-19T08:29:58.926Z,2.37
2023-04-19T08:32:25.157Z,2.10
2023-04-19T08:34:51.237Z,2.00
2023-04-19T08:37:17.370Z,2.40
2023-04-19T08:39:43.460Z,2.30
2023-04-19T08:42:18.353Z,2.17
2023-04-19T08:45:13.714Z,2.07
2023-04-19T08:47:59.013Z,2.10
2023-04-19T08:50:40.418Z,2.37
2023-04-19T08:53:24.992Z,2.23
2023-04-19T08:56:10.638Z,1.50
2023-04-19T08:58:56.996Z,2.10
2023-04-19T09:01:34.731Z,2.20
2023-04-19T09:04:31.817Z,2.00
2023-04-19T09:06:58.117Z,1.87
2023-04-19T09:12:15.955Z,1.80
2023-04-19T09:17:21.921Z,1.97
2023-04-19T09:19:53.023Z,2.33
2023-04-19T09:22:24.755Z,2.10
2023-04-19T09:27:33.917Z,1.80
2023-04-19T09:30:06.235Z,1.70
2023-04-19T09:32:47.697Z,1.80
2023-04-19T09:35:18.497Z,1.60
2023-04-19T09:38:05.826Z,2.00
2023-04-19T09:40:39.037Z,1.63
2023-04-19T09:43:40.479Z,1.87
2023-04-19T09:45:59.019Z,2.40
2023-04-19T09:48:28.076Z,1.97
2023-04-19T09:51:04.957Z,2.17
2023-04-19T09:53:33.791Z,2.00
2023-04-19T09:56:02.763Z,2.13
2023-04-19T09:58:51.354Z,1.83
2023-04-19T10:01:21.784Z,1.90
2023-04-19T10:03:49.976Z,1.80
2023-04-19T10:08:53.072Z,1.90
2023-04-19T10:11:23.116Z,2.30
2023-04-19T10:13:59.758Z,2.30
2023-04-19T10:16:26.482Z,2.43
2023-04-19T10:18:53.356Z,2.37
2023-04-19T10:21:20.260Z,2.17
2023-04-19T10:23:56.007Z,2.20
2023-04-19T10:26:24.767Z,3.10
2023-04-19T10:28:56.498Z,2.80
2023-04-19T10:31:26.129Z,2.90
2023-04-19T10:33:54.921Z,2.37
2023-04-19T10:36:26.778Z,1.90
2023-04-19T10:38:55.185Z,1.90
2023-04-19T10:41:58.628Z,1.80
2023-04-19T10:44:24.865Z,1.83
2023-04-19T10:46:59.267Z,1.70
2023-04-19T10:49:30.542Z,2.10
2023-04-19T10:51:59.330Z,2.13
2023-04-19T10:54:43.748Z,1.70
2023-04-19T10:57:15.378Z,2.00
2023-04-19T10:59:43.696Z,1.90
2023-04-19T11:02:21.815Z,2.27
2023-04-19T11:04:52.933Z,2.20
2023-04-19T11:07:24.006Z,1.93
2023-04-19T11:09:51.768Z,2.00
2023-04-19T11:12:22.217Z,2.00
2023-04-19T11:14:56.645Z,1.87
2023-04-19T11:17:30.773Z,2.40
2023-04-19T11:20:09.158Z,1.90
2023-04-19T11:22:42.187Z,2.50
2023-04-19T11:25:18.495Z,2.00
2023-04-19T11:27:51.439Z,2.00
2023-04-19T11:30:28.692Z,2.10
2023-04-19T11:32:59.449Z,1.60
2023-04-19T11:35:30.757Z,2.30
2023-04-19T11:38:01.218Z,2.10
2023-04-19T11:40:31.793Z,1.90
2023-04-19T11:43:06.072Z,2.00
2023-04-19T11:45:41.220Z,2.50
2023-04-19T11:48:15.716Z,2.53
2023-04-19T11:50:49.786Z,2.20
2023-04-19T11:53:22.009Z,2.80
2023-04-19T11:56:11.555Z,2.70
2023-04-19T11:58:49.070Z,2.80
2023-04-19T12:01:21.252Z,2.53
2023-04-19T12:04:04.409Z,2.63
2023-04-19T12:06:32.925Z,2.27
2023-04-19T12:09:07.440Z,2.40
2023-04-19T12:11:45.749Z,1.60
2023-04-19T12:14:13.607Z,2.33
2023-04-19T12:16:41.579Z,2.30
2023-04-19T12:19:17.042Z,2.17
2023-04-19T12:21:45.975Z,2.37
2023-04-19T12:24:16.031Z,2.70
2023-04-19T12:26:56.516Z,2.40
2023-04-19T12:29:22.752Z,2.60
2023-04-19T12:31:48.849Z,2.50
2023-04-19T12:34:15.996Z,2.27
2023-04-19T12:36:47.841Z,2.13
2023-04-19T12:39:18.748Z,2.47
2023-04-19T12:41:52.077Z,1.83
2023-04-19T12:44:19.631Z,2.30
2023-04-19T12:46:50.515Z,1.83
2023-04-19T12:49:20.422Z,1.50
2023-04-19T12:51:50.747Z,1.87
2023-04-19T12:54:21.058Z,1.80
2023-04-19T12:56:51.051Z,1.73
2023-04-19T12:59:21.372Z,2.13
2023-04-19T13:01:51.718Z,2.13
2023-04-19T13:04:25.494Z,1.90
2023-04-19T13:06:55.648Z,2.37
2023-04-19T13:09:26.974Z,2.20
2023-04-19T13:11:55.743Z,2.20
2023-04-19T13:14:26.787Z,2.43
2023-04-19T13:16:55.291Z,1.83
2023-04-19T13:19:26.147Z,2.57
2023-04-19T13:22:00.882Z,2.63
2023-04-19T13:24:30.977Z,2.57
2023-04-19T13:27:01.377Z,2.50
2023-04-19T13:29:33.660Z,2.67
2023-04-19T13:32:11.456Z,2.07
2023-04-19T13:34:39.470Z,2.03
2023-04-19T13:37:06.799Z,2.37
2023-04-19T13:39:37.809Z,2.33
2023-04-19T13:42:08.354Z,2.30
2023-04-19T13:44:37.744Z,2.00
2023-04-19T13:47:11.166Z,2.13
2023-04-19T13:49:41.651Z,2.20
2023-04-19T13:52:12.278Z,2.27
2023-04-19T13:54:42.358Z,2.33
2023-04-19T13:57:12.521Z,2.23
2023-04-19T13:59:42.252Z,2.27
2023-04-19T14:02:12.478Z,1.90
2023-04-19T14:04:43.271Z,2.40
2023-04-19T14:07:13.430Z,2.40
2023-04-19T14:09:43.948Z,2.37
2023-04-19T14:12:13.674Z,2.10
2023-04-19T14:14:47.071Z,2.50
2023-04-19T14:17:17.080Z,2.60
2023-04-19T14:19:47.248Z,2.40
2023-04-19T14:22:17.536Z,2.23
2023-04-19T14:24:47.344Z,2.13
2023-04-19T14:27:18.485Z,1.80
2023-04-19T14:29:47.300Z,2.30
2023-04-19T14:32:26.469Z,2.30
2023-04-19T14:34:55.104Z,1.70
2023-04-19T14:37:23.539Z,1.73
2023-04-19T14:39:53.254Z,1.67
2023-04-19T14:42:23.896Z,1.90
2023-04-19T14:44:54.866Z,1.70
2023-04-19T14:47:26.188Z,1.70
2023-04-19T14:49:58.850Z,1.67
2023-04-19T14:52:29.632Z,2.00
2023-04-19T14:54:59.431Z,2.40
2023-04-19T14:57:29.735Z,1.57
2023-04-19T15:00:01.596Z,1.80
2023-04-19T15:02:30.576Z,2.10
2023-04-19T15:05:00.275Z,2.10
2023-04-19T15:07:34.520Z,1.70
2023-04-19T15:10:05.401Z,2.23
2023-04-19T15:12:35.072Z,1.67
2023-04-19T15:15:08.259Z,1.73
2023-04-19T15:17:38.471Z,2.30
2023-04-19T15:20:08.691Z,1.90
2023-04-19T15:22:38.310Z,1.37
2023-04-19T15:25:10.857Z,2.03
2023-04-19T15:27:41.562Z,1.83
2023-04-19T15:30:11.642Z,2.10
2023-04-19T15:32:44.885Z,1.73
2023-04-19T15:35:14.727Z,1.93
2023-04-19T15:37:46.608Z,1.63
2023-04-19T15:40:16.365Z,1.70
2023-04-19T15:42:45.734Z,1.70
2023-04-19T15:45:16.366Z,2.23
2023-04-19T15:47:46.294Z,2.10
2023-04-19T15:50:20.141Z,1.60
2023-04-19T15:52:50.849Z,1.93
2023-04-19T15:55:21.109Z,1.90
2023-04-19T15:57:51.158Z,1.53
2023-04-19T16:00:21.659Z,2.30
2023-04-19T16:02:52.605Z,1.70
2023-04-19T16:05:22.323Z,1.67
2023-04-19T16:08:05.655Z,1.87
2023-04-19T16:10:31.995Z,1.93
2023-04-19T16:12:58.134Z,2.00
2023-04-19T16:15:27.494Z,1.83
2023-04-19T16:17:57.154Z,2.10
2023-04-19T16:20:27.126Z,2.47
2023-04-19T16:22:58.015Z,1.80
2023-04-19T16:25:33.653Z,2.00
2023-04-19T16:28:03.669Z,2.33
2023-04-19T16:30:33.641Z,2.23
2023-04-19T16:33:05.139Z,1.97
2023-04-19T16:35:34.261Z,1.80
2023-04-19T16:38:06.219Z,1.63
2023-04-19T16:40:34.630Z,2.07
2023-04-19T16:43:09.277Z,2.40
2023-04-19T16:45:42.033Z,2.10
2023-04-19T16:48:10.596Z,1.97
2023-04-19T16:50:40.568Z,2.53
2023-04-19T16:53:11.557Z,2.70
2023-04-19T16:55:41.808Z,2.70
2023-04-19T16:58:13.595Z,2.30
2023-04-19T17:00:48.934Z,2.43
2023-04-19T17:03:19.618Z,2.27
2023-04-19T17:05:49.228Z,2.73
2023-04-19T17:08:21.635Z,2.60
2023-04-19T17:10:52.299Z,2.73
2023-04-19T17:13:22.591Z,2.43
2023-04-19T17:15:52.733Z,2.40
2023-04-19T17:18:24.738Z,2.60
2023-04-19T17:20:54.664Z,2.33
2023-04-19T17:23:24.808Z,2.50
2023-04-19T17:25:54.699Z,2.60
2023-04-19T17:28:25.128Z,3.03
2023-04-19T17:30:55.287Z,2.17
2023-04-19T17:33:25.468Z,2.37
2023-04-19T17:35:57.875Z,2.30
2023-04-19T17:38:28.114Z,2.83
2023-04-19T17:40:58.097Z,2.60
2023-04-19T17:43:32.082Z,2.70
2023-04-19T17:46:03.230Z,3.00
2023-04-19T17:48:33.512Z,2.87
2023-04-19T17:51:03.521Z,2.80
2023-04-19T17:53:35.635Z,2.60
2023-04-19T17:56:05.783Z,3.60
2023-04-19T17:58:35.845Z,2.70
2023-04-19T18:01:06.001Z,3.07
2023-04-19T18:03:36.502Z,2.90
2023-04-19T18:06:08.106Z,2.60
2023-04-19T18:08:35.916Z,3.23
2023-04-19T18:11:12.557Z,2.57
2023-04-19T18:13:39.153Z,2.20
2023-04-19T18:16:10.532Z,2.70
2023-04-19T18:18:41.236Z,2.57
2023-04-19T18:21:12.036Z,3.50
2023-04-19T18:23:42.417Z,5.27
2023-04-19T18:26:12.219Z,3.00
2023-04-19T18:28:46.057Z,3.63
2023-04-19T18:31:16.773Z,3.00
2023-04-19T18:33:46.896Z,2.67
2023-04-19T18:36:17.158Z,2.80
2023-04-19T18:38:47.303Z,2.80
2023-04-19T18:41:33.192Z,3.07
2023-04-19T18:44:34.939Z,2.97
2023-04-19T18:46:53.638Z,2.83
2023-04-19T18:49:20.720Z,3.10
2023-04-19T18:51:52.658Z,2.60
2023-04-19T18:54:18.927Z,2.60
2023-04-19T18:59:15.263Z,2.73
2023-04-19T19:01:48.751Z,3.20
2023-04-19T19:04:43.040Z,2.50
2023-04-19T19:07:34.107Z,2.97
2023-04-19T19:10:18.143Z,3.57
2023-04-19T19:12:51.820Z,2.50
2023-04-19T19:15:23.002Z,2.97
2023-04-19T19:17:53.931Z,2.70
2023-04-19T19:20:29.108Z,2.53
2023-04-19T19:22:59.805Z,3.00
2023-04-19T19:25:31.397Z,3.33
2023-04-19T19:28:10.113Z,3.13
2023-04-19T19:30:44.121Z,2.90
2023-04-19T19:33:16.403Z,3.60
2023-04-19T19:35:51.578Z,3.20
2023-04-19T19:38:23.794Z,3.40
2023-04-19T19:41:30.886Z,3.57
2023-04-19T19:43:45.419Z,3.30
2023-04-19T19:46:16.575Z,3.23
2023-04-19T19:53:53.343Z,3.37
2023-04-19T19:56:24.571Z,3.10
2023-04-19T19:58:58.573Z,3.53
2023-04-19T20:01:28.595Z,3.60
2023-04-19T20:03:59.411Z,3.27
2023-04-19T20:09:00.452Z,4.00
2023-04-19T20:11:29.981Z,3.63
2023-04-19T20:14:00.080Z,3.20
2023-04-19T20:16:34.677Z,2.90
2023-04-19T20:19:08.894Z,3.17
2023-04-19T20:21:37.047Z,3.27
2023-04-19T20:24:05.196Z,3.53
2023-04-19T20:26:35.216Z,3.27
2023-04-19T20:29:06.215Z,3.77
2023-04-19T20:31:36.463Z,3.30
2023-04-19T20:34:10.034Z,3.53
2023-04-19T20:36:40.032Z,3.27
2023-04-19T20:39:12.296Z,3.10
2023-04-19T20:41:40.134Z,3.33
2023-04-19T20:44:10.971Z,3.30
2023-04-19T20:46:40.694Z,3.50
2023-04-19T20:49:10.177Z,3.30
2023-04-19T20:51:45.810Z,3.30
2023-04-19T20:54:14.168Z,3.07
2023-04-19T20:56:43.985Z,3.87
2023-04-19T20:59:13.832Z,4.77
2023-04-19T21:01:43.678Z,4.00
2023-04-19T21:04:14.171Z,4.63
2023-04-19T21:06:44.140Z,3.83
2023-04-19T21:09:18.482Z,4.33
2023-04-19T21:11:48.040Z,3.93
2023-04-19T21:14:17.952Z,3.03
2023-04-19T21:16:48.358Z,3.83
2023-04-19T21:19:18.488Z,3.40
2023-04-19T21:21:48.349Z,3.33
2023-04-19T21:24:19.022Z,3.13
2023-04-19T21:26:53.874Z,3.70
2023-04-19T21:29:24.597Z,3.23
2023-04-19T21:31:54.051Z,2.37
2023-04-19T21:34:24.229Z,2.93
2023-04-19T21:36:54.212Z,3.30
2023-04-19T21:39:24.731Z,2.90
2023-04-19T21:41:54.622Z,3.30
2023-04-19T21:44:28.504Z,3.23
2023-04-19T21:46:58.653Z,3.00
2023-04-19T21:49:28.586Z,3.27
2023-04-19T21:51:58.577Z,3.27
2023-04-19T21:54:33.830Z,3.23
2023-04-19T21:57:00.887Z,3.50
2023-04-19T21:59:30.105Z,3.50
2023-04-19T22:02:03.929Z,3.60
2023-04-19T22:04:35.935Z,3.80
2023-04-19T22:07:04.319Z,4.10
2023-04-19T22:09:34.230Z,3.60
2023-04-19T22:12:05.382Z,3.40
2023-04-19T22:14:34.464Z,3.60
2023-04-19T22:17:04.819Z,2.90
2023-04-19T22:19:38.733Z,3.30
2023-04-19T22:22:07.942Z,3.57
2023-04-19T22:24:50.063Z,4.07
2023-04-19T22:27:28.183Z,3.70
2023-04-19T22:29:54.312Z,4.27
2023-04-19T22:32:20.556Z,3.87
2023-04-19T22:34:46.649Z,4.10
2023-04-19T22:37:16.070Z,4.40
2023-04-19T22:39:43.848Z,4.30
2023-04-19T22:42:13.825Z,4.20
2023-04-19T22:44:44.022Z,4.03
2023-04-19T22:47:14.510Z,3.50
2023-04-19T22:49:44.561Z,3.90
2023-04-19T22:52:14.999Z,4.00
2023-04-19T22:54:49.321Z,3.40
2023-04-19T22:57:19.536Z,4.00
2023-04-19T22:59:49.500Z,4.00
2023-04-19T23:02:19.619Z,3.90
2023-04-19T23:04:49.737Z,3.60
2023-04-19T23:07:21.168Z,3.60
2023-04-19T23:09:50.292Z,4.30
2023-04-19T23:12:24.954Z,4.60
2023-04-19T23:14:54.896Z,4.90
2023-04-19T23:17:25.602Z,4.00
2023-04-19T23:19:54.606Z,4.40
2023-04-19T23:22:24.571Z,5.43
2023-04-19T23:24:54.680Z,4.80
2023-04-19T23:27:24.915Z,4.97
2023-04-19T23:29:59.619Z,5.17
2023-04-19T23:32:30.258Z,4.57
2023-04-19T23:34:59.974Z,4.80
2023-04-19T23:37:29.588Z,4.30
2023-04-19T23:40:00.879Z,4.60
2023-04-19T23:42:30.166Z,4.30
2023-04-19T23:45:00.609Z,4.90
2023-04-19T23:47:34.694Z,4.40
2023-04-19T23:50:05.496Z,4.40
2023-04-19T23:52:34.986Z,4.90
2023-04-19T23:55:06.206Z,5.17
2023-04-19T23:57:35.769Z,4.40
